sensor_id;sensor_type;location;lat;lon;timestamp;temperature;humidity
31129;DHT22;17777;48.770;8.944;2024-03-06T00:02:12;11.40;53.80
31129;DHT22;17777;48.770;8.944;2024-03-06T00:04:37;11.40;53.80
31129;DHT22;17777;48.770;8.944;2024-03-06T00:07:04;11.40;53.80
31129;DHT22;17777;48.770;8.944;2024-03-06T00:09:30;11.40;53.80
31129;DHT22;17777;48.770;8.944;2024-03-06T00:11:56;11.40;53.80
31129;DHT22;17777;48.770;8.944;2024-03-06T00:14:22;11.40;53.80
31129;DHT22;17777;48.770;8.944;2024-03-06T00:16:49;11.40;53.90
31129;DHT22;17777;48.770;8.944;2024-03-06T00:19:16;11.40;53.80
31129;DHT22;17777;48.770;8.944;2024-03-06T00:21:42;11.40;53.80
31129;DHT22;17777;48.770;8.944;2024-03-06T00:24:09;11.40;53.80
31129;DHT22;17777;48.770;8.944;2024-03-06T00:26:40;11.40;54.00
31129;DHT22;17777;48.770;8.944;2024-03-06T00:29:06;11.30;53.80
31129;DHT22;17777;48.770;8.944;2024-03-06T00:31:32;11.30;54.50
31129;DHT22;17777;48.770;8.944;2024-03-06T00:33:58;11.30;53.90
31129;DHT22;17777;48.770;8.944;2024-03-06T00:36:23;11.20;54.00
31129;DHT22;17777;48.770;8.944;2024-03-06T00:38:49;11.30;54.10
31129;DHT22;17777;48.770;8.944;2024-03-06T00:41:15;11.20;54.10
31129;DHT22;17777;48.770;8.944;2024-03-06T00:43:41;11.30;54.20
31129;DHT22;17777;48.770;8.944;2024-03-06T00:46:07;11.30;54.20
31129;DHT22;17777;48.770;8.944;2024-03-06T00:48:33;11.30;54.20
31129;DHT22;17777;48.770;8.944;2024-03-06T00:50:59;11.30;54.10
31129;DHT22;17777;48.770;8.944;2024-03-06T00:53:25;11.30;54.10
31129;DHT22;17777;48.770;8.944;2024-03-06T00:55:50;11.30;54.10
31129;DHT22;17777;48.770;8.944;2024-03-06T00:58:16;11.40;54.00
31129;DHT22;17777;48.770;8.944;2024-03-06T01:00:42;11.40;54.00
31129;DHT22;17777;48.770;8.944;2024-03-06T01:03:08;11.40;54.00
31129;DHT22;17777;48.770;8.944;2024-03-06T01:05:33;11.30;54.00
31129;DHT22;17777;48.770;8.944;2024-03-06T01:07:59;11.30;54.00
31129;DHT22;17777;48.770;8.944;2024-03-06T01:10:25;11.20;54.00
31129;DHT22;17777;48.770;8.944;2024-03-06T01:12:51;11.20;54.00
31129;DHT22;17777;48.770;8.944;2024-03-06T01:15:17;11.20;54.10
31129;DHT22;17777;48.770;8.944;2024-03-06T01:17:43;11.20;54.20
31129;DHT22;17777;48.770;8.944;2024-03-06T01:20:09;11.20;54.20
31129;DHT22;17777;48.770;8.944;2024-03-06T01:22:35;11.10;54.10
31129;DHT22;17777;48.770;8.944;2024-03-06T01:25:01;11.10;54.10
31129;DHT22;17777;48.770;8.944;2024-03-06T01:27:27;11.10;54.20
31129;DHT22;17777;48.770;8.944;2024-03-06T01:29:53;11.10;54.20
31129;DHT22;17777;48.770;8.944;2024-03-06T01:32:19;11.10;54.30
31129;DHT22;17777;48.770;8.944;2024-03-06T01:34:45;11.10;54.30
31129;DHT22;17777;48.770;8.944;2024-03-06T01:37:11;11.10;54.40
31129;DHT22;17777;48.770;8.944;2024-03-06T01:39:36;11.10;54.40
31129;DHT22;17777;48.770;8.944;2024-03-06T01:42:03;11.10;54.40
31129;DHT22;17777;48.770;8.944;2024-03-06T01:44:29;11.00;54.30
31129;DHT22;17777;48.770;8.944;2024-03-06T01:46:55;11.10;54.40
31129;DHT22;17777;48.770;8.944;2024-03-06T01:49:21;11.10;54.50
31129;DHT22;17777;48.770;8.944;2024-03-06T01:51:53;11.10;54.50
31129;DHT22;17777;48.770;8.944;2024-03-06T01:54:22;11.10;54.50
31129;DHT22;17777;48.770;8.944;2024-03-06T01:56:48;11.10;54.50
31129;DHT22;17777;48.770;8.944;2024-03-06T01:59:16;11.10;54.40
31129;DHT22;17777;48.770;8.944;2024-03-06T02:01:45;11.10;55.10
31129;DHT22;17777;48.770;8.944;2024-03-06T02:04:12;11.10;54.50
31129;DHT22;17777;48.770;8.944;2024-03-06T02:06:39;11.10;54.50
31129;DHT22;17777;48.770;8.944;2024-03-06T02:09:05;11.00;54.40
31129;DHT22;17777;48.770;8.944;2024-03-06T02:11:32;11.10;54.50
31129;DHT22;17777;48.770;8.944;2024-03-06T02:13:59;11.10;54.50
31129;DHT22;17777;48.770;8.944;2024-03-06T02:16:25;11.00;54.50
31129;DHT22;17777;48.770;8.944;2024-03-06T02:18:53;11.10;54.50
31129;DHT22;17777;48.770;8.944;2024-03-06T02:21:20;11.00;54.50
31129;DHT22;17777;48.770;8.944;2024-03-06T02:23:47;11.10;54.60
31129;DHT22;17777;48.770;8.944;2024-03-06T02:26:14;11.10;54.60
31129;DHT22;17777;48.770;8.944;2024-03-06T02:28:49;11.10;54.60
31129;DHT22;17777;48.770;8.944;2024-03-06T02:31:17;11.10;54.50
31129;DHT22;17777;48.770;8.944;2024-03-06T02:33:45;11.10;54.50
31129;DHT22;17777;48.770;8.944;2024-03-06T02:36:13;11.10;54.50
31129;DHT22;17777;48.770;8.944;2024-03-06T02:38:40;11.00;54.50
31129;DHT22;17777;48.770;8.944;2024-03-06T02:41:06;11.00;54.60
31129;DHT22;17777;48.770;8.944;2024-03-06T02:43:33;11.00;54.60
31129;DHT22;17777;48.770;8.944;2024-03-06T02:45:59;11.00;54.60
31129;DHT22;17777;48.770;8.944;2024-03-06T02:48:25;11.00;54.60
31129;DHT22;17777;48.770;8.944;2024-03-06T02:50:51;11.00;54.50
31129;DHT22;17777;48.770;8.944;2024-03-06T02:53:17;11.00;54.60
31129;DHT22;17777;48.770;8.944;2024-03-06T02:55:42;11.00;54.60
31129;DHT22;17777;48.770;8.944;2024-03-06T02:58:08;11.00;54.70
31129;DHT22;17777;48.770;8.944;2024-03-06T03:00:34;10.90;54.70
31129;DHT22;17777;48.770;8.944;2024-03-06T03:03:00;11.00;54.80
31129;DHT22;17777;48.770;8.944;2024-03-06T03:05:26;11.00;54.80
31129;DHT22;17777;48.770;8.944;2024-03-06T03:07:52;11.00;54.80
31129;DHT22;17777;48.770;8.944;2024-03-06T03:10:18;11.00;54.90
31129;DHT22;17777;48.770;8.944;2024-03-06T03:12:44;11.00;54.90
31129;DHT22;17777;48.770;8.944;2024-03-06T03:15:10;11.00;54.90
31129;DHT22;17777;48.770;8.944;2024-03-06T03:17:36;11.10;54.90
31129;DHT22;17777;48.770;8.944;2024-03-06T03:20:03;11.10;55.50
31129;DHT22;17777;48.770;8.944;2024-03-06T03:22:44;11.10;54.80
31129;DHT22;17777;48.770;8.944;2024-03-06T03:25:11;11.10;55.00
31129;DHT22;17777;48.770;8.944;2024-03-06T03:27:40;11.10;54.80
31129;DHT22;17777;48.770;8.944;2024-03-06T03:30:10;11.20;54.80
31129;DHT22;17777;48.770;8.944;2024-03-06T03:32:37;11.20;54.80
31129;DHT22;17777;48.770;8.944;2024-03-06T03:35:06;11.20;54.80
31129;DHT22;17777;48.770;8.944;2024-03-06T03:37:33;11.20;54.90
31129;DHT22;17777;48.770;8.944;2024-03-06T03:39:59;11.20;54.80
31129;DHT22;17777;48.770;8.944;2024-03-06T03:42:25;11.20;54.80
31129;DHT22;17777;48.770;8.944;2024-03-06T03:44:51;11.20;54.90
31129;DHT22;17777;48.770;8.944;2024-03-06T03:47:17;11.20;54.90
31129;DHT22;17777;48.770;8.944;2024-03-06T03:49:44;11.30;54.90
31129;DHT22;17777;48.770;8.944;2024-03-06T03:52:09;11.30;55.50
31129;DHT22;17777;48.770;8.944;2024-03-06T03:54:35;11.20;54.80
31129;DHT22;17777;48.770;8.944;2024-03-06T03:57:01;11.20;54.80
31129;DHT22;17777;48.770;8.944;2024-03-06T03:59:27;11.20;54.90
31129;DHT22;17777;48.770;8.944;2024-03-06T04:01:53;11.20;55.00
31129;DHT22;17777;48.770;8.944;2024-03-06T04:04:19;11.20;55.00
31129;DHT22;17777;48.770;8.944;2024-03-06T04:06:46;11.20;55.00
31129;DHT22;17777;48.770;8.944;2024-03-06T04:09:12;11.20;55.10
31129;DHT22;17777;48.770;8.944;2024-03-06T04:11:40;11.20;55.10
31129;DHT22;17777;48.770;8.944;2024-03-06T04:14:06;11.20;55.20
31129;DHT22;17777;48.770;8.944;2024-03-06T04:16:35;11.20;55.20
31129;DHT22;17777;48.770;8.944;2024-03-06T04:19:01;11.20;55.30
31129;DHT22;17777;48.770;8.944;2024-03-06T04:21:27;11.20;55.20
31129;DHT22;17777;48.770;8.944;2024-03-06T04:23:53;11.20;55.30
31129;DHT22;17777;48.770;8.944;2024-03-06T04:26:20;11.20;55.20
31129;DHT22;17777;48.770;8.944;2024-03-06T04:28:46;11.30;55.30
31129;DHT22;17777;48.770;8.944;2024-03-06T04:31:12;11.30;55.30
31129;DHT22;17777;48.770;8.944;2024-03-06T04:33:37;11.30;55.30
31129;DHT22;17777;48.770;8.944;2024-03-06T04:36:04;11.30;55.30
31129;DHT22;17777;48.770;8.944;2024-03-06T04:38:34;11.30;55.30
31129;DHT22;17777;48.770;8.944;2024-03-06T04:41:00;11.40;55.30
31129;DHT22;17777;48.770;8.944;2024-03-06T04:43:26;11.40;55.30
31129;DHT22;17777;48.770;8.944;2024-03-06T04:45:51;11.40;55.30
31129;DHT22;17777;48.770;8.944;2024-03-06T04:48:17;11.40;55.50
31129;DHT22;17777;48.770;8.944;2024-03-06T04:50:43;11.40;55.30
31129;DHT22;17777;48.770;8.944;2024-03-06T04:53:10;11.50;55.30
31129;DHT22;17777;48.770;8.944;2024-03-06T04:55:36;11.50;55.30
31129;DHT22;17777;48.770;8.944;2024-03-06T04:58:03;11.50;55.40
31129;DHT22;17777;48.770;8.944;2024-03-06T05:00:29;11.50;55.40
31129;DHT22;17777;48.770;8.944;2024-03-06T05:02:55;11.50;55.40
31129;DHT22;17777;48.770;8.944;2024-03-06T05:05:22;11.50;55.30
31129;DHT22;17777;48.770;8.944;2024-03-06T05:07:48;11.50;55.30
31129;DHT22;17777;48.770;8.944;2024-03-06T05:10:15;11.50;55.40
31129;DHT22;17777;48.770;8.944;2024-03-06T05:12:44;11.40;55.40
31129;DHT22;17777;48.770;8.944;2024-03-06T05:15:10;11.40;55.50
31129;DHT22;17777;48.770;8.944;2024-03-06T05:17:37;11.40;55.50
31129;DHT22;17777;48.770;8.944;2024-03-06T05:20:03;11.40;55.50
31129;DHT22;17777;48.770;8.944;2024-03-06T05:22:30;11.40;55.60
31129;DHT22;17777;48.770;8.944;2024-03-06T05:24:56;11.40;55.70
31129;DHT22;17777;48.770;8.944;2024-03-06T05:27:23;11.40;55.70
31129;DHT22;17777;48.770;8.944;2024-03-06T05:29:49;11.40;55.70
31129;DHT22;17777;48.770;8.944;2024-03-06T05:32:15;11.40;55.70
31129;DHT22;17777;48.770;8.944;2024-03-06T05:34:41;11.40;55.70
31129;DHT22;17777;48.770;8.944;2024-03-06T05:37:07;11.50;55.80
31129;DHT22;17777;48.770;8.944;2024-03-06T05:39:33;11.50;55.80
31129;DHT22;17777;48.770;8.944;2024-03-06T05:42:03;11.40;55.80
31129;DHT22;17777;48.770;8.944;2024-03-06T05:44:31;11.40;56.00
31129;DHT22;17777;48.770;8.944;2024-03-06T05:46:58;11.50;56.30
31129;DHT22;17777;48.770;8.944;2024-03-06T05:49:24;11.50;56.40
31129;DHT22;17777;48.770;8.944;2024-03-06T05:51:51;11.50;56.40
31129;DHT22;17777;48.770;8.944;2024-03-06T05:54:16;11.60;56.40
31129;DHT22;17777;48.770;8.944;2024-03-06T05:56:42;11.70;56.40
31129;DHT22;17777;48.770;8.944;2024-03-06T05:59:08;11.70;56.40
31129;DHT22;17777;48.770;8.944;2024-03-06T06:01:37;11.70;56.20
31129;DHT22;17777;48.770;8.944;2024-03-06T06:04:02;11.70;56.30
31129;DHT22;17777;48.770;8.944;2024-03-06T06:06:28;11.70;56.10
31129;DHT22;17777;48.770;8.944;2024-03-06T06:08:55;11.80;56.20
31129;DHT22;17777;48.770;8.944;2024-03-06T06:11:21;11.70;56.00
31129;DHT22;17777;48.770;8.944;2024-03-06T06:13:47;11.70;55.90
31129;DHT22;17777;48.770;8.944;2024-03-06T06:16:12;11.70;56.40
31129;DHT22;17777;48.770;8.944;2024-03-06T06:18:40;11.70;55.90
31129;DHT22;17777;48.770;8.944;2024-03-06T06:21:07;11.70;56.00
31129;DHT22;17777;48.770;8.944;2024-03-06T06:23:34;11.60;55.90
31129;DHT22;17777;48.770;8.944;2024-03-06T06:26:00;11.60;56.00
31129;DHT22;17777;48.770;8.944;2024-03-06T06:28:26;11.50;55.90
31129;DHT22;17777;48.770;8.944;2024-03-06T06:30:52;11.40;56.00
31129;DHT22;17777;48.770;8.944;2024-03-06T06:33:19;11.40;56.00
31129;DHT22;17777;48.770;8.944;2024-03-06T06:35:45;11.30;56.10
31129;DHT22;17777;48.770;8.944;2024-03-06T06:38:11;11.30;56.20
31129;DHT22;17777;48.770;8.944;2024-03-06T06:40:36;11.30;56.30
31129;DHT22;17777;48.770;8.944;2024-03-06T06:43:02;11.20;56.40
31129;DHT22;17777;48.770;8.944;2024-03-06T06:45:28;11.20;56.40
31129;DHT22;17777;48.770;8.944;2024-03-06T06:47:54;11.20;56.50
31129;DHT22;17777;48.770;8.944;2024-03-06T06:50:20;11.20;56.50
31129;DHT22;17777;48.770;8.944;2024-03-06T06:52:48;11.30;56.60
31129;DHT22;17777;48.770;8.944;2024-03-06T06:55:14;11.20;56.60
31129;DHT22;17777;48.770;8.944;2024-03-06T06:57:40;11.30;57.40
31129;DHT22;17777;48.770;8.944;2024-03-06T07:00:06;11.30;56.70
31129;DHT22;17777;48.770;8.944;2024-03-06T07:02:39;11.30;56.80
31129;DHT22;17777;48.770;8.944;2024-03-06T07:05:07;11.30;56.80
31129;DHT22;17777;48.770;8.944;2024-03-06T07:07:34;11.40;56.80
31129;DHT22;17777;48.770;8.944;2024-03-06T07:10:01;11.30;56.70
31129;DHT22;17777;48.770;8.944;2024-03-06T07:12:28;11.40;56.70
31129;DHT22;17777;48.770;8.944;2024-03-06T07:14:54;11.40;56.60
31129;DHT22;17777;48.770;8.944;2024-03-06T07:17:20;11.40;56.70
31129;DHT22;17777;48.770;8.944;2024-03-06T07:19:45;11.40;56.70
31129;DHT22;17777;48.770;8.944;2024-03-06T07:22:11;11.30;56.60
31129;DHT22;17777;48.770;8.944;2024-03-06T07:24:37;11.40;56.70
31129;DHT22;17777;48.770;8.944;2024-03-06T07:27:03;11.30;56.70
31129;DHT22;17777;48.770;8.944;2024-03-06T07:29:29;11.30;56.80
31129;DHT22;17777;48.770;8.944;2024-03-06T07:31:55;11.30;56.90
31129;DHT22;17777;48.770;8.944;2024-03-06T07:34:21;11.30;56.90
31129;DHT22;17777;48.770;8.944;2024-03-06T07:36:49;11.30;56.90
31129;DHT22;17777;48.770;8.944;2024-03-06T07:39:15;11.30;56.90
31129;DHT22;17777;48.770;8.944;2024-03-06T07:41:41;11.30;57.00
31129;DHT22;17777;48.770;8.944;2024-03-06T07:44:08;11.30;57.00
31129;DHT22;17777;48.770;8.944;2024-03-06T07:46:35;11.20;57.00
31129;DHT22;17777;48.770;8.944;2024-03-06T07:49:01;11.30;57.20
31129;DHT22;17777;48.770;8.944;2024-03-06T07:51:29;11.30;57.20
31129;DHT22;17777;48.770;8.944;2024-03-06T07:53:58;11.40;57.20
31129;DHT22;17777;48.770;8.944;2024-03-06T07:56:25;11.40;57.10
31129;DHT22;17777;48.770;8.944;2024-03-06T07:58:51;11.40;57.20
31129;DHT22;17777;48.770;8.944;2024-03-06T08:01:17;11.40;57.10
31129;DHT22;17777;48.770;8.944;2024-03-06T08:03:43;11.40;57.00
31129;DHT22;17777;48.770;8.944;2024-03-06T08:06:10;11.40;57.00
31129;DHT22;17777;48.770;8.944;2024-03-06T08:08:36;11.40;57.00
31129;DHT22;17777;48.770;8.944;2024-03-06T08:11:03;11.30;57.00
31129;DHT22;17777;48.770;8.944;2024-03-06T08:13:29;11.30;57.20
31129;DHT22;17777;48.770;8.944;2024-03-06T08:15:55;11.30;57.20
31129;DHT22;17777;48.770;8.944;2024-03-06T08:18:21;11.30;57.30
31129;DHT22;17777;48.770;8.944;2024-03-06T08:20:47;11.30;57.20
31129;DHT22;17777;48.770;8.944;2024-03-06T08:23:12;11.30;57.40
31129;DHT22;17777;48.770;8.944;2024-03-06T08:25:38;11.30;57.80
31129;DHT22;17777;48.770;8.944;2024-03-06T08:28:04;11.40;57.40
31129;DHT22;17777;48.770;8.944;2024-03-06T08:30:35;11.40;57.40
31129;DHT22;17777;48.770;8.944;2024-03-06T08:33:01;11.40;57.40
31129;DHT22;17777;48.770;8.944;2024-03-06T08:35:26;11.40;57.40
31129;DHT22;17777;48.770;8.944;2024-03-06T08:37:52;11.40;57.50
31129;DHT22;17777;48.770;8.944;2024-03-06T08:40:18;11.40;57.40
31129;DHT22;17777;48.770;8.944;2024-03-06T08:42:45;11.50;57.50
31129;DHT22;17777;48.770;8.944;2024-03-06T08:45:13;11.50;57.50
31129;DHT22;17777;48.770;8.944;2024-03-06T08:47:40;11.50;57.50
31129;DHT22;17777;48.770;8.944;2024-03-06T08:50:07;11.50;57.60
31129;DHT22;17777;48.770;8.944;2024-03-06T08:52:33;11.60;57.60
31129;DHT22;17777;48.770;8.944;2024-03-06T08:55:02;11.60;57.60
31129;DHT22;17777;48.770;8.944;2024-03-06T08:57:32;11.60;57.60
31129;DHT22;17777;48.770;8.944;2024-03-06T08:59:58;11.60;57.70
31129;DHT22;17777;48.770;8.944;2024-03-06T09:02:25;11.60;57.50
31129;DHT22;17777;48.770;8.944;2024-03-06T09:04:51;11.60;57.50
31129;DHT22;17777;48.770;8.944;2024-03-06T09:07:18;11.60;57.50
31129;DHT22;17777;48.770;8.944;2024-03-06T09:09:45;11.50;57.50
31129;DHT22;17777;48.770;8.944;2024-03-06T09:12:11;11.50;57.50
31129;DHT22;17777;48.770;8.944;2024-03-06T09:14:38;11.50;57.50
31129;DHT22;17777;48.770;8.944;2024-03-06T09:17:04;11.40;57.60
31129;DHT22;17777;48.770;8.944;2024-03-06T09:19:31;11.40;57.70
31129;DHT22;17777;48.770;8.944;2024-03-06T09:21:58;11.40;57.80
31129;DHT22;17777;48.770;8.944;2024-03-06T09:24:25;11.40;57.90
31129;DHT22;17777;48.770;8.944;2024-03-06T09:26:52;11.40;58.00
31129;DHT22;17777;48.770;8.944;2024-03-06T09:29:18;11.40;57.90
31129;DHT22;17777;48.770;8.944;2024-03-06T09:31:45;11.40;58.00
31129;DHT22;17777;48.770;8.944;2024-03-06T09:34:11;11.30;58.00
31129;DHT22;17777;48.770;8.944;2024-03-06T09:36:45;11.30;58.10
31129;DHT22;17777;48.770;8.944;2024-03-06T09:39:12;11.30;58.30
31129;DHT22;17777;48.770;8.944;2024-03-06T09:41:45;11.30;58.10
31129;DHT22;17777;48.770;8.944;2024-03-06T09:44:16;11.30;58.20
31129;DHT22;17777;48.770;8.944;2024-03-06T09:46:43;11.30;58.20
31129;DHT22;17777;48.770;8.944;2024-03-06T09:49:11;11.30;58.30
31129;DHT22;17777;48.770;8.944;2024-03-06T09:51:46;11.30;58.30
31129;DHT22;17777;48.770;8.944;2024-03-06T09:54:14;11.30;58.30
31129;DHT22;17777;48.770;8.944;2024-03-06T09:56:43;11.30;58.20
31129;DHT22;17777;48.770;8.944;2024-03-06T09:59:11;11.30;58.30
31129;DHT22;17777;48.770;8.944;2024-03-06T10:01:57;11.30;58.30
31129;DHT22;17777;48.770;8.944;2024-03-06T10:04:27;11.30;58.70
31129;DHT22;17777;48.770;8.944;2024-03-06T10:06:57;11.40;58.50
31129;DHT22;17777;48.770;8.944;2024-03-06T10:09:25;11.40;58.50
31129;DHT22;17777;48.770;8.944;2024-03-06T10:11:52;11.40;58.30
31129;DHT22;17777;48.770;8.944;2024-03-06T10:14:23;11.50;58.40
31129;DHT22;17777;48.770;8.944;2024-03-06T10:16:54;11.50;58.40
31129;DHT22;17777;48.770;8.944;2024-03-06T10:19:25;11.60;58.60
31129;DHT22;17777;48.770;8.944;2024-03-06T10:21:53;11.60;58.30
31129;DHT22;17777;48.770;8.944;2024-03-06T10:24:27;11.70;58.30
31129;DHT22;17777;48.770;8.944;2024-03-06T10:26:57;11.70;58.20
31129;DHT22;17777;48.770;8.944;2024-03-06T10:29:28;11.70;58.40
31129;DHT22;17777;48.770;8.944;2024-03-06T10:31:55;11.80;58.00
31129;DHT22;17777;48.770;8.944;2024-03-06T10:34:24;11.80;58.10
31129;DHT22;17777;48.770;8.944;2024-03-06T10:36:55;11.80;58.10
31129;DHT22;17777;48.770;8.944;2024-03-06T10:39:23;11.90;58.20
31129;DHT22;17777;48.770;8.944;2024-03-06T10:41:54;11.90;58.10
31129;DHT22;17777;48.770;8.944;2024-03-06T10:44:22;11.90;58.10
31129;DHT22;17777;48.770;8.944;2024-03-06T10:46:57;11.90;58.10
31129;DHT22;17777;48.770;8.944;2024-03-06T10:49:25;11.90;58.20
31129;DHT22;17777;48.770;8.944;2024-03-06T10:54:28;11.90;58.00
31129;DHT22;17777;48.770;8.944;2024-03-06T10:56:55;12.00;58.00
31129;DHT22;17777;48.770;8.944;2024-03-06T10:59:24;11.90;58.00
31129;DHT22;17777;48.770;8.944;2024-03-06T11:01:58;12.00;58.10
31129;DHT22;17777;48.770;8.944;2024-03-06T11:04:29;11.90;58.10
31129;DHT22;17777;48.770;8.944;2024-03-06T11:07:00;12.00;58.00
31129;DHT22;17777;48.770;8.944;2024-03-06T11:09:27;11.90;58.00
31129;DHT22;17777;48.770;8.944;2024-03-06T11:11:54;12.00;58.00
31129;DHT22;17777;48.770;8.944;2024-03-06T11:14:22;12.00;58.00
31129;DHT22;17777;48.770;8.944;2024-03-06T11:19:45;12.10;58.30
31129;DHT22;17777;48.770;8.944;2024-03-06T11:28:17;12.10;58.10
31129;DHT22;17777;48.770;8.944;2024-03-06T11:31:11;12.20;58.00
31129;DHT22;17777;48.770;8.944;2024-03-06T11:33:53;12.20;58.30
31129;DHT22;17777;48.770;8.944;2024-03-06T11:36:27;12.20;58.30
31129;DHT22;17777;48.770;8.944;2024-03-06T11:38:59;12.20;58.00
31129;DHT22;17777;48.770;8.944;2024-03-06T11:44:12;12.30;57.90
31129;DHT22;17777;48.770;8.944;2024-03-06T11:46:59;12.30;57.90
31129;DHT22;17777;48.770;8.944;2024-03-06T11:49:28;12.30;58.00
31129;DHT22;17777;48.770;8.944;2024-03-06T11:52:05;12.30;57.70
31129;DHT22;17777;48.770;8.944;2024-03-06T11:54:33;12.30;57.90
31129;DHT22;17777;48.770;8.944;2024-03-06T11:57:01;12.30;57.80
31129;DHT22;17777;48.770;8.944;2024-03-06T11:59:32;12.30;57.90
31129;DHT22;17777;48.770;8.944;2024-03-06T12:02:03;12.30;58.00
31129;DHT22;17777;48.770;8.944;2024-03-06T12:04:32;12.30;57.90
31129;DHT22;17777;48.770;8.944;2024-03-06T12:07:03;12.40;57.80
31129;DHT22;17777;48.770;8.944;2024-03-06T12:09:35;12.40;57.80
31129;DHT22;17777;48.770;8.944;2024-03-06T12:12:02;12.40;57.80
31129;DHT22;17777;48.770;8.944;2024-03-06T12:14:29;12.30;57.80
31129;DHT22;17777;48.770;8.944;2024-03-06T12:19:31;12.30;57.80
31129;DHT22;17777;48.770;8.944;2024-03-06T12:22:04;12.30;57.90
31129;DHT22;17777;48.770;8.944;2024-03-06T12:24:30;12.30;57.90
31129;DHT22;17777;48.770;8.944;2024-03-06T12:27:04;12.40;57.80
31129;DHT22;17777;48.770;8.944;2024-03-06T12:29:32;12.40;58.00
31129;DHT22;17777;48.770;8.944;2024-03-06T12:32:01;12.40;57.90
31129;DHT22;17777;48.770;8.944;2024-03-06T12:34:28;12.40;57.90
31129;DHT22;17777;48.770;8.944;2024-03-06T12:36:56;12.40;57.90
31129;DHT22;17777;48.770;8.944;2024-03-06T12:39:23;12.40;57.90
31129;DHT22;17777;48.770;8.944;2024-03-06T12:41:50;12.40;57.90
31129;DHT22;17777;48.770;8.944;2024-03-06T12:44:16;12.40;57.80
31129;DHT22;17777;48.770;8.944;2024-03-06T12:46:42;12.40;57.70
31129;DHT22;17777;48.770;8.944;2024-03-06T12:49:08;12.40;57.70
31129;DHT22;17777;48.770;8.944;2024-03-06T12:51:33;12.40;57.80
31129;DHT22;17777;48.770;8.944;2024-03-06T12:54:00;12.40;57.80
31129;DHT22;17777;48.770;8.944;2024-03-06T12:56:26;12.40;57.80
31129;DHT22;17777;48.770;8.944;2024-03-06T12:58:52;12.40;57.80
31129;DHT22;17777;48.770;8.944;2024-03-06T13:01:18;12.40;57.80
31129;DHT22;17777;48.770;8.944;2024-03-06T13:03:45;12.40;57.90
31129;DHT22;17777;48.770;8.944;2024-03-06T13:06:11;12.40;57.90
31129;DHT22;17777;48.770;8.944;2024-03-06T13:08:37;12.40;57.90
31129;DHT22;17777;48.770;8.944;2024-03-06T13:11:03;12.40;57.80
31129;DHT22;17777;48.770;8.944;2024-03-06T13:13:29;12.40;57.80
31129;DHT22;17777;48.770;8.944;2024-03-06T13:15:58;12.40;57.80
31129;DHT22;17777;48.770;8.944;2024-03-06T13:18:24;12.40;57.80
31129;DHT22;17777;48.770;8.944;2024-03-06T13:20:51;12.40;57.90
31129;DHT22;17777;48.770;8.944;2024-03-06T13:23:17;12.40;57.90
31129;DHT22;17777;48.770;8.944;2024-03-06T13:25:43;12.40;58.00
31129;DHT22;17777;48.770;8.944;2024-03-06T13:28:11;12.40;58.00
31129;DHT22;17777;48.770;8.944;2024-03-06T13:30:37;12.40;58.00
31129;DHT22;17777;48.770;8.944;2024-03-06T13:33:05;12.40;58.00
31129;DHT22;17777;48.770;8.944;2024-03-06T13:35:31;12.40;58.10
31129;DHT22;17777;48.770;8.944;2024-03-06T13:37:57;12.40;58.10
31129;DHT22;17777;48.770;8.944;2024-03-06T13:40:22;12.50;58.10
31129;DHT22;17777;48.770;8.944;2024-03-06T13:42:48;12.50;58.10
31129;DHT22;17777;48.770;8.944;2024-03-06T13:45:14;12.50;58.10
31129;DHT22;17777;48.770;8.944;2024-03-06T13:47:41;12.50;58.10
31129;DHT22;17777;48.770;8.944;2024-03-06T13:50:09;12.60;58.10
31129;DHT22;17777;48.770;8.944;2024-03-06T13:52:37;12.60;58.10
31129;DHT22;17777;48.770;8.944;2024-03-06T13:55:03;12.60;57.90
31129;DHT22;17777;48.770;8.944;2024-03-06T13:57:33;12.60;57.80
31129;DHT22;17777;48.770;8.944;2024-03-06T14:00:04;12.60;57.90
31129;DHT22;17777;48.770;8.944;2024-03-06T14:02:37;12.60;57.90
31129;DHT22;17777;48.770;8.944;2024-03-06T14:05:03;12.50;57.80
31129;DHT22;17777;48.770;8.944;2024-03-06T14:07:29;12.50;57.90
31129;DHT22;17777;48.770;8.944;2024-03-06T14:09:55;12.50;57.80
31129;DHT22;17777;48.770;8.944;2024-03-06T14:12:22;12.50;57.90
31129;DHT22;17777;48.770;8.944;2024-03-06T14:14:49;12.50;58.00
31129;DHT22;17777;48.770;8.944;2024-03-06T14:17:15;12.50;58.00
31129;DHT22;17777;48.770;8.944;2024-03-06T14:19:40;12.50;58.10
31129;DHT22;17777;48.770;8.944;2024-03-06T14:22:07;12.50;58.10
31129;DHT22;17777;48.770;8.944;2024-03-06T14:24:34;12.50;58.00
31129;DHT22;17777;48.770;8.944;2024-03-06T14:26:59;12.50;58.00
31129;DHT22;17777;48.770;8.944;2024-03-06T14:29:25;12.40;58.00
31129;DHT22;17777;48.770;8.944;2024-03-06T14:31:54;12.40;58.10
31129;DHT22;17777;48.770;8.944;2024-03-06T14:34:20;12.40;58.30
31129;DHT22;17777;48.770;8.944;2024-03-06T14:36:52;12.40;58.30
31129;DHT22;17777;48.770;8.944;2024-03-06T14:39:19;12.40;58.30
31129;DHT22;17777;48.770;8.944;2024-03-06T14:41:48;12.40;58.20
31129;DHT22;17777;48.770;8.944;2024-03-06T14:44:14;12.50;58.20
31129;DHT22;17777;48.770;8.944;2024-03-06T14:46:42;12.50;58.20
31129;DHT22;17777;48.770;8.944;2024-03-06T14:49:09;12.50;58.90
31129;DHT22;17777;48.770;8.944;2024-03-06T14:51:36;12.50;58.20
31129;DHT22;17777;48.770;8.944;2024-03-06T14:54:02;12.60;58.20
31129;DHT22;17777;48.770;8.944;2024-03-06T14:56:28;12.60;58.20
31129;DHT22;17777;48.770;8.944;2024-03-06T14:58:56;12.60;58.10
31129;DHT22;17777;48.770;8.944;2024-03-06T15:01:23;12.60;58.20
31129;DHT22;17777;48.770;8.944;2024-03-06T15:03:53;12.60;58.20
31129;DHT22;17777;48.770;8.944;2024-03-06T15:06:20;12.60;58.10
31129;DHT22;17777;48.770;8.944;2024-03-06T15:08:46;12.70;58.10
31129;DHT22;17777;48.770;8.944;2024-03-06T15:11:12;12.60;58.10
31129;DHT22;17777;48.770;8.944;2024-03-06T15:13:38;12.60;58.10
31129;DHT22;17777;48.770;8.944;2024-03-06T15:16:04;12.70;58.30
31129;DHT22;17777;48.770;8.944;2024-03-06T15:18:30;12.70;58.30
31129;DHT22;17777;48.770;8.944;2024-03-06T15:20:58;12.70;58.30
31129;DHT22;17777;48.770;8.944;2024-03-06T15:23:24;12.70;58.20
31129;DHT22;17777;48.770;8.944;2024-03-06T15:25:49;12.70;58.20
31129;DHT22;17777;48.770;8.944;2024-03-06T15:28:16;12.70;58.20
31129;DHT22;17777;48.770;8.944;2024-03-06T15:30:42;12.70;58.20
31129;DHT22;17777;48.770;8.944;2024-03-06T15:33:08;12.70;58.20
31129;DHT22;17777;48.770;8.944;2024-03-06T15:35:34;12.70;58.30
31129;DHT22;17777;48.770;8.944;2024-03-06T15:38:00;12.80;58.40
31129;DHT22;17777;48.770;8.944;2024-03-06T15:40:26;12.80;58.30
31129;DHT22;17777;48.770;8.944;2024-03-06T15:42:52;12.80;58.30
31129;DHT22;17777;48.770;8.944;2024-03-06T15:45:18;12.70;58.10
31129;DHT22;17777;48.770;8.944;2024-03-06T15:47:45;12.70;58.20